Date,TemperatureHighF,TemperatureAvgF,TemperatureLowF,DewpointHighF,DewpointAvgF,DewpointLowF,HumidityHigh,HumidityAvg,HumidityLow,PressureMaxIn,PressureMinIn,WindSpeedMaxMPH,WindSpeedAvgMPH,GustSpeedMaxMPH,PrecipitationSumIn
2013-2-1,21.4,16.5,11.7,10.1,7.6,1.8,77,68,54,30.29,29.91,9,2,9,0.00
2013-2-2,25.4,18.0,11.9,17.9,11.0,4.2,78,74,69,30.25,30.00,7,1,7,0.00
2013-2-3,23.6,15.6,7.6,14.8,7.6,0.4,76,70,64,30.06,29.89,6,1,6,0.00
2013-2-4,24.7,20.1,15.3,16.6,12.6,6.0,77,73,66,30.07,29.94,4,0,4,0.00
2013-2-5,29.2,24.6,19.1,23.1,17.2,12.3,83,74,59,30.00,29.86,6,0,6,0.00
2013-2-6,32.4,25.5,16.4,22.3,16.1,9.8,83,68,54,30.35,30.00,3,0,3,0.05
2013-2-7,35.6,29.9,25.2,25.7,21.3,16.7,79,70,64,30.34,29.96,8,2,8,0.01
2013-2-8,29.2,26.8,22.3,25.5,21.0,15.3,86,79,72,30.39,29.86,10,2,10,0.00
2013-2-9,32.9,23.8,13.9,20.8,15.0,7.6,77,69,55,30.49,30.33,4,0,4,0.14
2013-2-10,37.8,29.4,20.3,33.8,22.8,15.4,87,77,61,30.35,29.77,8,2,8,0.13
2013-2-11,42.1,36.5,31.9,39.4,29.6,24.8,90,76,67,29.91,29.62,16,3,16,0.05
2013-2-12,32.9,31.0,28.6,25.5,22.7,20.2,77,71,67,30.10,29.91,8,2,8,0.00
2013-2-13,38.5,31.8,27.7,26.3,22.7,19.6,74,69,59,29.99,29.80,5,0,5,0.00
2013-2-14,37.8,33.8,29.0,32.6,27.9,22.3,83,79,73,29.88,29.74,10,1,10,0.01
2013-2-15,34.0,28.5,24.1,27.5,17.3,11.7,77,63,50,30.16,29.88,7,2,7,0.00
2013-2-16,28.4,22.9,18.0,18.2,13.5,10.4,73,67,58,30.15,30.03,3,0,3,0.00
2013-2-17,24.7,18.4,10.1,12.3,7.0,2.5,76,62,46,30.26,30.09,6,1,6,0.00
2013-2-18,42.8,26.0,16.9,32.7,16.3,6.3,75,67,55,30.26,29.68,9,2,9,0.00
2013-2-19,42.5,29.7,18.7,37.4,22.6,9.5,88,75,63,29.96,29.48,10,3,12,0.17
2013-2-20,23.0,20.1,16.4,13.7,10.6,7.3,76,66,57,30.27,29.96,11,2,11,0.00
2013-2-21,25.7,21.3,18.7,16.7,12.4,10.0,80,69,58,30.43,30.27,6,1,6,0.00
2013-2-22,33.5,27.0,21.4,29.8,22.7,15.8,88,84,78,30.32,29.95,8,2,8,0.00
2013-2-23,35.1,31.6,27.4,29.3,23.5,20.2,86,72,62,29.98,29.92,5,1,5,0.05
2013-2-24,36.4,29.4,23.8,26.6,21.4,17.2,79,72,60,30.20,29.95,5,1,5,0.03
2013-2-25,40.9,30.4,19.4,26.5,20.1,12.6,76,66,51,30.29,30.17,4,0,4,0.01
2013-2-26,36.5,31.7,28.3,30.3,24.9,20.1,89,76,62,30.20,29.60,9,2,9,0.11
2013-2-27,37.1,34.9,33.1,33.0,31.2,30.3,90,86,83,29.65,29.54,4,0,6,0.26
2013-2-28,38.0,33.9,29.9,31.8,28.5,23.4,88,81,74,30.02,29.61,10,2,10,0.24